Time;durP1;ratioP1;P1;durP2;ratioP2;P2;SDS_P1;SDS_P2;PMS_P1;PMS_P2;Temp;Humidity;BMP_temperature;BMP_pressure;BME280_temperature;BME280_humidity;BME280_pressure;Samples;Min_cycle;Max_cycle;Signal;HPM_P1;HPM_P2
2024/01/22 00:01:27;;;;;;;19.23;2.10;;;5.90;99.90;;;;;;5041686;28;20193;-82
2024/01/22 00:03:53;;;;;;;23.23;2.37;;;5.90;99.90;;;;;;5023940;28;20224;-83
2024/01/22 00:06:19;;;;;;;17.97;2.10;;;5.90;99.90;;;;;;5042153;28;20209;-83
2024/01/22 00:08:44;;;;;;;21.40;2.67;;;5.90;99.90;;;;;;5041741;28;20186;-83
2024/01/22 00:11:11;;;;;;;18.67;2.10;;;5.90;99.90;;;;;;5024308;28;20696;-82
2024/01/22 00:13:37;;;;;;;18.27;2.30;;;5.90;99.90;;;;;;5043662;28;20253;-81
2024/01/22 00:16:02;;;;;;;19.97;1.93;;;5.90;99.90;;;;;;5042299;28;20263;-82
2024/01/22 00:18:28;;;;;;;20.30;2.67;;;5.90;99.90;;;;;;5042187;28;20193;-82
2024/01/22 00:20:54;;;;;;;20.97;2.27;;;6.00;99.90;;;;;;5041973;28;20190;-82
2024/01/22 00:23:20;;;;;;;18.70;3.00;;;6.10;99.90;;;;;;5041606;28;20645;-81
2024/01/22 00:25:45;;;;;;;19.73;2.60;;;6.00;99.90;;;;;;5023879;28;20408;-82
2024/01/22 00:28:11;;;;;;;22.93;2.77;;;6.00;99.90;;;;;;5042012;28;20196;-82
2024/01/22 00:30:36;;;;;;;18.27;2.47;;;6.20;99.90;;;;;;5041521;28;20695;-81
2024/01/22 00:33:02;;;;;;;18.70;2.50;;;6.20;99.90;;;;;;5041613;28;20188;-82
2024/01/22 00:35:28;;;;;;;18.47;2.00;;;6.20;99.90;;;;;;5041267;28;20169;-82
2024/01/22 00:37:54;;;;;;;18.33;2.53;;;6.40;99.90;;;;;;5040733;28;20196;-82
2024/01/22 00:40:19;;;;;;;19.13;2.20;;;6.30;99.90;;;;;;5040847;28;20409;-82
2024/01/22 00:42:45;;;;;;;19.83;2.73;;;6.30;99.90;;;;;;5042782;28;20158;-82
2024/01/22 00:45:11;;;;;;;18.87;1.97;;;6.30;99.90;;;;;;5041943;28;20158;-82
2024/01/22 00:47:36;;;;;;;30.57;3.47;;;6.40;99.90;;;;;;5042152;28;20196;-82
2024/01/22 00:50:03;;;;;;;21.40;2.67;;;6.40;99.90;;;;;;5042143;28;20192;-83
2024/01/22 00:52:29;;;;;;;17.45;1.80;;;6.50;99.90;;;;;;5042553;28;20162;-81
2024/01/22 00:54:54;;;;;;;20.83;2.47;;;6.50;99.90;;;;;;5043236;28;20172;-82
2024/01/22 00:57:20;;;;;;;18.73;2.30;;;6.40;99.90;;;;;;5042980;28;20216;-82
2024/01/22 00:59:46;;;;;;;17.40;1.90;;;6.40;99.90;;;;;;5043560;28;20194;-83
2024/01/22 01:02:12;;;;;;;18.70;2.30;;;6.40;99.90;;;;;;5043992;28;20392;-83
2024/01/22 01:04:38;;;;;;;20.60;1.93;;;6.40;99.90;;;;;;5042969;28;20404;-82
2024/01/22 01:07:03;;;;;;;17.00;1.87;;;6.50;99.90;;;;;;5042603;28;20272;-83
2024/01/22 01:09:29;;;;;;;22.30;2.60;;;6.50;99.90;;;;;;5024512;28;20253;-82
2024/01/22 01:11:55;;;;;;;19.60;1.97;;;6.50;99.90;;;;;;5042706;28;20299;-83
2024/01/22 01:14:20;;;;;;;18.10;2.17;;;6.50;99.90;;;;;;5042020;28;20165;-83
2024/01/22 01:16:46;;;;;;;17.90;2.17;;;6.50;99.90;;;;;;5024584;28;22074;-83
2024/01/22 01:19:12;;;;;;;20.20;2.33;;;6.60;99.90;;;;;;5024532;28;20170;-83
2024/01/22 01:21:38;;;;;;;18.50;2.30;;;6.60;99.90;;;;;;5024838;28;20201;-83
2024/01/22 01:24:04;;;;;;;20.20;2.42;;;6.70;99.90;;;;;;5041907;28;20170;-83
2024/01/22 01:26:30;;;;;;;18.83;2.10;;;6.80;99.90;;;;;;5024859;28;20189;-82
2024/01/22 01:28:56;;;;;;;19.53;4.17;;;6.70;99.90;;;;;;5041951;28;20411;-83
2024/01/22 01:31:22;;;;;;;18.60;2.03;;;6.70;99.90;;;;;;5043502;28;20165;-82
2024/01/22 01:33:47;;;;;;;19.25;2.08;;;6.70;99.90;;;;;;5042059;28;20164;-83
2024/01/22 01:36:13;;;;;;;18.53;2.50;;;6.70;99.90;;;;;;5041515;28;20186;-82
2024/01/22 01:38:39;;;;;;;19.17;1.87;;;6.70;99.90;;;;;;5042033;28;20444;-83
2024/01/22 01:41:05;;;;;;;24.00;2.47;;;6.80;99.90;;;;;;5042184;28;20185;-82
2024/01/22 01:43:31;;;;;;;17.37;1.57;;;6.90;99.90;;;;;;5041769;28;20166;-83
2024/01/22 01:45:56;;;;;;;19.20;2.00;;;6.90;99.90;;;;;;5025463;28;20196;-83
2024/01/22 01:48:22;;;;;;;19.33;2.43;;;6.90;99.90;;;;;;5043427;28;20170;-81
2024/01/22 01:50:48;;;;;;;18.00;1.87;;;6.90;99.90;;;;;;5043866;28;20168;-83
2024/01/22 01:53:14;;;;;;;17.30;1.93;;;6.90;99.90;;;;;;5043234;28;20396;-82
2024/01/22 01:55:41;;;;;;;19.05;1.67;;;6.90;99.90;;;;;;5044176;28;20430;-82
2024/01/22 01:58:07;;;;;;;21.70;2.15;;;6.90;99.90;;;;;;5044411;28;20190;-83
2024/01/22 02:00:32;;;;;;;18.70;1.80;;;6.90;99.90;;;;;;5025417;28;20168;-84
2024/01/22 02:02:58;;;;;;;18.43;2.03;;;6.90;99.90;;;;;;5042971;28;20166;-83
2024/01/22 02:05:25;;;;;;;19.70;2.30;;;6.90;99.90;;;;;;5025354;28;20411;-83
2024/01/22 02:07:51;;;;;;;17.73;2.40;;;7.00;99.90;;;;;;5043502;28;20197;-82
2024/01/22 02:10:16;;;;;;;17.07;1.60;;;7.00;99.90;;;;;;5042258;28;20196;-84
2024/01/22 02:12:42;;;;;;;17.50;1.50;;;7.00;99.90;;;;;;5042271;28;20201;-82
2024/01/22 02:15:08;;;;;;;17.10;1.43;;;7.00;99.90;;;;;;5042893;28;20192;-84
2024/01/22 02:17:34;;;;;;;18.20;1.83;;;7.00;99.90;;;;;;5041770;28;20193;-82
2024/01/22 02:20:00;;;;;;;18.93;1.73;;;7.00;99.90;;;;;;5040696;28;20191;-83
2024/01/22 02:22:25;;;;;;;17.83;2.10;;;7.00;99.90;;;;;;5021720;28;20177;-82
2024/01/22 02:24:51;;;;;;;19.60;1.70;;;7.00;99.90;;;;;;5040142;28;20169;-83
2024/01/22 02:27:17;;;;;;;20.87;3.00;;;7.10;99.90;;;;;;5040365;28;20194;-83
2024/01/22 02:29:43;;;;;;;18.58;1.77;;;7.10;99.90;;;;;;5041056;28;20158;-82
2024/01/22 02:32:09;;;;;;;16.80;1.63;;;7.20;99.90;;;;;;5041097;28;20197;-82
2024/01/22 02:34:35;;;;;;;17.57;1.60;;;7.10;99.90;;;;;;5041852;28;20514;-81
2024/01/22 02:37:00;;;;;;;17.57;1.80;;;7.10;99.90;;;;;;5042016;28;20327;-81
2024/01/22 02:39:26;;;;;;;18.40;1.80;;;7.10;99.90;;;;;;5043023;28;20188;-82
2024/01/22 02:41:52;;;;;;;18.50;1.30;;;7.20;99.90;;;;;;5042398;28;20221;-82
2024/01/22 02:44:17;;;;;;;17.33;1.60;;;7.20;99.90;;;;;;5041873;28;20161;-82
2024/01/22 02:46:43;;;;;;;18.27;2.03;;;7.30;99.90;;;;;;5040426;28;20220;-82
2024/01/22 02:49:09;;;;;;;18.00;2.00;;;7.20;99.90;;;;;;5038540;28;20172;-80
2024/01/22 02:51:35;;;;;;;19.25;1.88;;;7.30;99.90;;;;;;5037552;28;20194;-83
2024/01/22 02:54:04;;;;;;;20.20;2.35;;;7.40;99.90;;;;;;5037955;28;20192;-80
2024/01/22 02:56:30;;;;;;;18.42;1.90;;;7.40;99.90;;;;;;5037294;28;20186;-81
2024/01/22 02:58:56;;;;;;;17.50;1.27;;;7.50;99.90;;;;;;5037727;28;20546;-81
2024/01/22 03:01:22;;;;;;;19.00;1.80;;;7.40;99.90;;;;;;5037222;28;20161;-82
2024/01/22 03:03:47;;;;;;;18.10;1.93;;;7.40;99.90;;;;;;5041316;28;20397;-81
2024/01/22 03:06:13;;;;;;;18.90;1.83;;;7.50;99.90;;;;;;5043102;28;20177;-82
2024/01/22 03:08:39;;;;;;;18.70;1.63;;;7.50;99.90;;;;;;5043484;28;20268;-83
2024/01/22 03:11:06;;;;;;;18.10;1.90;;;7.70;99.90;;;;;;5043207;28;20165;-82
2024/01/22 03:13:32;;;;;;;18.88;1.90;;;7.70;99.90;;;;;;5043099;28;20169;-82
2024/01/22 03:15:58;;;;;;;17.35;1.55;;;7.60;99.90;;;;;;5043132;28;20177;-81
2024/01/22 03:18:24;;;;;;;17.50;1.93;;;7.60;99.90;;;;;;5042656;28;20263;-81
2024/01/22 03:20:50;;;;;;;19.27;1.10;;;7.60;99.90;;;;;;5044133;28;20166;-82
2024/01/22 03:23:15;;;;;;;17.50;1.90;;;7.60;99.90;;;;;;5041921;28;20196;-81
2024/01/22 03:25:41;;;;;;;17.97;1.60;;;7.60;99.90;;;;;;5041626;28;20157;-81
2024/01/22 03:28:09;;;;;;;17.67;1.53;;;7.70;99.90;;;;;;5041892;28;20184;-81
2024/01/22 03:30:35;;;;;;;16.80;1.58;;;7.70;99.90;;;;;;5042947;28;20166;-80
2024/01/22 03:33:01;;;;;;;16.97;1.50;;;7.70;99.90;;;;;;5043354;28;20319;-82
2024/01/22 03:35:26;;;;;;;17.70;1.80;;;7.70;99.90;;;;;;5043824;28;20166;-81
2024/01/22 03:37:52;;;;;;;17.40;1.30;;;7.70;99.90;;;;;;5042812;28;20236;-81
2024/01/22 03:40:17;;;;;;;17.13;1.50;;;7.70;99.90;;;;;;5043131;28;20196;-81
2024/01/22 03:42:43;;;;;;;17.47;1.73;;;7.70;99.90;;;;;;5042881;28;20192;-81
2024/01/22 03:45:09;;;;;;;17.50;1.10;;;7.70;99.90;;;;;;5043404;28;20174;-82
2024/01/22 03:47:34;;;;;;;17.03;1.40;;;7.60;99.90;;;;;;5042457;28;20185;-81
2024/01/22 03:50:02;;;;;;;17.27;1.30;;;7.60;99.90;;;;;;5041788;28;20173;-81
2024/01/22 03:52:27;;;;;;;18.55;1.27;;;7.80;99.90;;;;;;5041519;28;20259;-80
2024/01/22 03:54:53;;;;;;;16.67;1.20;;;7.70;99.90;;;;;;5042705;28;20631;-82
2024/01/22 03:57:19;;;;;;;17.50;1.20;;;7.70;99.90;;;;;;5042441;28;20255;-80
2024/01/22 03:59:46;;;;;;;16.83;1.10;;;7.80;99.90;;;;;;5042739;28;20173;-81
2024/01/22 04:02:12;;;;;;;17.10;1.60;;;7.80;99.90;;;;;;5042658;28;20162;-80
2024/01/22 04:04:37;;;;;;;16.67;1.27;;;7.80;99.90;;;;;;5043424;28;20194;-81
2024/01/22 04:07:03;;;;;;;16.83;1.00;;;7.90;99.90;;;;;;5042321;28;20241;-80
2024/01/22 04:09:29;;;;;;;18.20;1.20;;;7.90;99.90;;;;;;5042843;28;20162;-80
2024/01/22 04:11:54;;;;;;;17.20;1.10;;;7.90;99.90;;;;;;5041459;28;20229;-79
2024/01/22 04:14:20;;;;;;;20.23;1.50;;;8.00;99.90;;;;;;5041598;28;20177;-82
2024/01/22 04:16:46;;;;;;;16.60;1.10;;;8.10;99.90;;;;;;5040999;28;20281;-81
2024/01/22 04:19:11;;;;;;;18.00;1.53;;;8.10;99.90;;;;;;5040975;28;20166;-81
2024/01/22 04:21:44;;;;;;;17.20;1.10;;;8.10;99.90;;;;;;5041440;28;20173;-82
2024/01/22 04:24:10;;;;;;;16.73;1.00;;;8.10;99.90;;;;;;5043120;28;20158;-81
2024/01/22 04:26:35;;;;;;;17.13;1.17;;;8.10;99.90;;;;;;5039986;28;20733;-81
2024/01/22 04:29:01;;;;;;;17.27;1.17;;;8.10;99.90;;;;;;5039210;28;20162;-81
2024/01/22 04:31:26;;;;;;;17.30;1.30;;;8.10;99.90;;;;;;5038628;28;20166;-80
2024/01/22 04:33:53;;;;;;;17.00;1.10;;;8.10;99.90;;;;;;5038324;28;20193;-79
2024/01/22 04:36:19;;;;;;;17.60;1.27;;;8.10;99.90;;;;;;5037387;28;20189;-80
2024/01/22 04:38:45;;;;;;;17.23;1.20;;;8.00;99.90;;;;;;5037934;28;20194;-81
2024/01/22 04:41:10;;;;;;;17.10;1.00;;;8.00;99.90;;;;;;5038148;28;20268;-80
2024/01/22 04:43:36;;;;;;;17.10;1.10;;;8.00;99.90;;;;;;5037459;28;20635;-80
2024/01/22 04:46:02;;;;;;;17.80;1.20;;;8.00;99.90;;;;;;5037059;28;20173;-81
2024/01/22 04:48:28;;;;;;;17.87;1.07;;;8.00;99.90;;;;;;5037451;28;20166;-81
2024/01/22 04:50:54;;;;;;;17.20;1.10;;;8.10;99.90;;;;;;5019211;28;20181;-81
2024/01/22 04:53:19;;;;;;;18.13;1.20;;;8.10;99.90;;;;;;5037280;28;20408;-80
2024/01/22 04:55:45;;;;;;;18.07;1.20;;;8.10;99.90;;;;;;5037671;28;20170;-80
2024/01/22 04:58:11;;;;;;;18.43;1.20;;;8.10;99.90;;;;;;5037585;28;20200;-79
2024/01/22 05:00:36;;;;;;;17.10;1.13;;;8.20;99.90;;;;;;5038690;28;20273;-81
2024/01/22 05:03:04;;;;;;;17.50;1.27;;;8.20;99.90;;;;;;5020094;28;20169;-81
2024/01/22 05:05:32;;;;;;;18.05;1.30;;;8.20;99.90;;;;;;5037275;28;20270;-80
2024/01/22 05:07:57;;;;;;;18.38;1.40;;;8.20;99.90;;;;;;5037027;28;20228;-81
2024/01/22 05:10:23;;;;;;;17.40;1.00;;;8.20;99.90;;;;;;5037491;28;20166;-80
2024/01/22 05:12:49;;;;;;;18.77;1.20;;;8.30;99.90;;;;;;5036882;28;20174;-81
2024/01/22 05:15:15;;;;;;;17.73;1.10;;;8.30;99.90;;;;;;5019029;28;20189;-81
2024/01/22 05:17:41;;;;;;;20.83;1.65;;;8.30;99.90;;;;;;5036277;28;20189;-81
2024/01/22 05:20:08;;;;;;;17.65;1.20;;;8.30;99.90;;;;;;5036749;28;20165;-80
2024/01/22 05:22:34;;;;;;;24.95;1.60;;;8.40;99.90;;;;;;5037062;28;20534;-81
2024/01/22 05:25:00;;;;;;;17.40;1.10;;;8.40;99.90;;;;;;5019226;28;20240;-80
2024/01/22 05:27:25;;;;;;;17.50;1.07;;;8.50;99.90;;;;;;5035996;28;20205;-80
2024/01/22 05:29:51;;;;;;;19.07;1.70;;;8.50;99.90;;;;;;5037096;28;20181;-81
2024/01/22 05:32:16;;;;;;;18.20;1.10;;;8.50;99.90;;;;;;5020821;28;20257;-82
2024/01/22 05:34:42;;;;;;;17.23;1.20;;;8.50;99.90;;;;;;5037820;28;20524;-80
2024/01/22 05:37:08;;;;;;;17.77;1.10;;;8.60;99.90;;;;;;5020895;28;20205;-81
2024/01/22 05:39:33;;;;;;;18.13;1.10;;;8.60;99.90;;;;;;5039010;28;20173;-81
2024/01/22 05:42:01;;;;;;;17.20;0.90;;;8.60;99.90;;;;;;5019950;28;20170;-81
2024/01/22 05:44:27;;;;;;;18.13;1.10;;;8.60;99.90;;;;;;5037498;28;20194;-80
2024/01/22 05:46:52;;;;;;;17.33;1.10;;;8.70;99.90;;;;;;5038434;28;20185;-81
2024/01/22 05:49:18;;;;;;;17.80;1.40;;;8.70;99.90;;;;;;5038135;28;20173;-81
2024/01/22 05:51:44;;;;;;;18.07;1.30;;;8.70;99.90;;;;;;5038087;28;20158;-81
2024/01/22 05:54:10;;;;;;;17.37;1.30;;;8.80;99.90;;;;;;5037961;28;20158;-80
2024/01/22 05:56:35;;;;;;;17.53;1.30;;;8.80;99.90;;;;;;5037317;28;20423;-81
2024/01/22 05:59:01;;;;;;;17.13;1.03;;;8.90;99.90;;;;;;5020750;28;20722;-81
2024/01/22 06:01:31;;;;;;;16.87;1.23;;;8.90;99.90;;;;;;5037635;28;20169;-80
2024/01/22 06:03:57;;;;;;;17.55;1.30;;;8.90;99.90;;;;;;5037905;28;20165;-81
2024/01/22 06:06:23;;;;;;;17.05;1.10;;;8.90;99.90;;;;;;5019202;28;20194;-81
2024/01/22 06:08:49;;;;;;;20.05;2.03;;;8.90;99.90;;;;;;5037480;28;20239;-81
2024/01/22 06:11:17;;;;;;;17.25;1.27;;;9.00;99.90;;;;;;5019617;28;20554;-80
2024/01/22 06:13:43;;;;;;;17.80;1.58;;;9.10;99.90;;;;;;5037004;28;20264;-81
2024/01/22 06:16:10;;;;;;;18.02;1.40;;;9.20;99.90;;;;;;5018543;28;20169;-81
2024/01/22 06:18:37;;;;;;;18.00;1.33;;;9.20;99.90;;;;;;5036933;28;20558;-80
2024/01/22 06:21:04;;;;;;;18.00;1.63;;;9.30;99.90;;;;;;5036565;28;20162;-80
2024/01/22 06:23:30;;;;;;;16.95;1.30;;;9.30;99.90;;;;;;5019084;28;20173;-81
2024/01/22 06:25:59;;;;;;;16.85;1.00;;;9.30;99.90;;;;;;5036862;28;20177;-81
2024/01/22 06:28:26;;;;;;;16.73;0.93;;;9.30;99.90;;;;;;5035813;28;20166;-81
2024/01/22 06:30:53;;;;;;;17.73;1.20;;;9.50;99.90;;;;;;5036492;28;20166;-81
2024/01/22 06:33:19;;;;;;;19.20;1.42;;;9.50;99.90;;;;;;5035975;28;20189;-81
2024/01/22 06:35:45;;;;;;;16.65;0.90;;;9.50;99.90;;;;;;5038703;28;20179;-83
2024/01/22 06:38:11;;;;;;;16.55;0.80;;;9.50;99.90;;;;;;5019965;28;20694;-81
2024/01/22 06:40:37;;;;;;;16.73;0.85;;;9.50;99.90;;;;;;5038222;28;20166;-80
2024/01/22 06:43:03;;;;;;;17.00;0.97;;;9.60;99.90;;;;;;5021001;28;20166;-81
2024/01/22 06:45:29;;;;;;;16.23;0.70;;;9.60;99.90;;;;;;5039878;28;20158;-82
2024/01/22 06:47:55;;;;;;;16.50;0.70;;;9.50;99.90;;;;;;5038912;28;20712;-81
2024/01/22 06:50:22;;;;;;;19.17;1.07;;;9.50;99.90;;;;;;5037744;28;20416;-81
2024/01/22 06:52:48;;;;;;;17.23;1.00;;;9.60;99.90;;;;;;5038556;28;20219;-82
2024/01/22 06:55:15;;;;;;;19.08;1.20;;;9.60;99.90;;;;;;5036314;28;20235;-80
2024/01/22 06:57:40;;;;;;;16.98;1.02;;;9.70;99.90;;;;;;5036750;28;20215;-82
2024/01/22 07:00:07;;;;;;;17.30;1.27;;;9.70;99.90;;;;;;5039562;28;20245;-80
2024/01/22 07:02:41;;;;;;;17.42;1.17;;;9.70;99.90;;;;;;5039305;28;20193;-82
2024/01/22 07:05:08;;;;;;;18.50;2.78;;;9.80;99.90;;;;;;5019882;28;20154;-80
2024/01/22 07:07:34;;;;;;;22.70;1.17;;;9.80;99.90;;;;;;5037927;28;20233;-81
2024/01/22 07:09:59;;;;;;;17.00;1.13;;;9.80;99.90;;;;;;5038418;28;20169;-81
2024/01/22 07:12:25;;;;;;;16.57;1.00;;;9.80;99.90;;;;;;5037440;28;20509;-81
2024/01/22 07:14:51;;;;;;;17.00;0.90;;;9.90;99.90;;;;;;5038768;28;20504;-81
2024/01/22 07:17:19;;;;;;;19.00;1.00;;;10.00;99.90;;;;;;5036577;28;20200;-82
2024/01/22 07:19:45;;;;;;;16.83;0.80;;;10.00;99.90;;;;;;5019291;28;20470;-81
2024/01/22 07:22:11;;;;;;;17.25;1.05;;;10.10;99.90;;;;;;5019646;28;20166;-81
2024/01/22 07:24:37;;;;;;;18.10;1.07;;;10.00;99.90;;;;;;5036380;28;20227;-80
2024/01/22 07:27:03;;;;;;;17.02;0.98;;;10.00;99.90;;;;;;5035555;28;20194;-83
2024/01/22 07:29:30;;;;;;;16.88;0.80;;;10.00;99.90;;;;;;5035918;28;20184;-83
2024/01/22 07:31:56;;;;;;;16.65;0.73;;;10.00;99.90;;;;;;5035393;28;20166;-81
2024/01/22 07:34:22;;;;;;;20.63;1.88;;;10.00;99.90;;;;;;5017881;28;20174;-82
2024/01/22 07:36:48;;;;;;;18.40;1.10;;;10.00;99.90;;;;;;5035470;28;20259;-83
2024/01/22 07:39:14;;;;;;;17.73;1.10;;;10.00;99.90;;;;;;5036000;28;20981;-81
2024/01/22 07:41:39;;;;;;;18.27;1.60;;;10.10;99.90;;;;;;5018069;28;20225;-81
2024/01/22 07:44:05;;;;;;;18.10;1.30;;;10.00;99.90;;;;;;5036087;28;20201;-82
2024/01/22 07:46:31;;;;;;;17.40;1.30;;;10.00;99.90;;;;;;5036952;28;20610;-82
2024/01/22 07:48:57;;;;;;;18.73;1.10;;;10.00;99.90;;;;;;5036246;28;20174;-82
2024/01/22 07:51:25;;;;;;;17.10;1.10;;;9.90;99.90;;;;;;5021611;28;20789;-81
2024/01/22 07:53:51;;;;;;;21.73;1.95;;;9.90;99.90;;;;;;5005568;28;20192;-81
2024/01/22 07:56:17;;;;;;;17.30;1.17;;;9.90;99.90;;;;;;5021034;28;20546;-81
2024/01/22 07:58:43;;;;;;;18.85;1.50;;;9.90;99.90;;;;;;5040280;28;20448;-82
2024/01/22 08:01:09;;;;;;;18.50;1.30;;;9.90;99.90;;;;;;5023291;28;20595;-81
2024/01/22 08:03:35;;;;;;;18.00;1.35;;;10.00;99.90;;;;;;5041674;28;20245;-82
2024/01/22 08:06:01;;;;;;;17.27;1.27;;;9.90;99.90;;;;;;5041653;28;20224;-82
2024/01/22 08:08:28;;;;;;;18.10;1.33;;;9.90;99.90;;;;;;5043230;28;20185;-83
2024/01/22 08:10:54;;;;;;;18.00;1.17;;;9.90;99.90;;;;;;5045601;28;20586;-82
2024/01/22 08:13:20;;;;;;;17.05;1.00;;;9.90;99.90;;;;;;5047262;28;20602;-82
2024/01/22 08:15:50;;;;;;;17.10;1.20;;;9.90;99.90;;;;;;5045809;28;20193;-83
2024/01/22 08:18:16;;;;;;;18.45;1.35;;;9.90;99.90;;;;;;5047223;28;20721;-84
2024/01/22 08:20:42;;;;;;;17.90;1.20;;;9.90;99.90;;;;;;5030611;28;20619;-83
2024/01/22 08:23:08;;;;;;;17.80;1.03;;;10.00;99.90;;;;;;5047091;28;20168;-82
2024/01/22 08:25:34;;;;;;;17.75;1.33;;;10.00;99.90;;;;;;5047518;28;20411;-83
2024/01/22 08:28:00;;;;;;;17.70;1.13;;;10.00;99.90;;;;;;5027207;28;20185;-82
2024/01/22 08:30:26;;;;;;;16.87;0.90;;;10.00;99.90;;;;;;5020961;28;20170;-80
2024/01/22 08:32:52;;;;;;;16.45;0.85;;;10.00;99.90;;;;;;5038420;28;20435;-82
2024/01/22 08:35:19;;;;;;;16.70;0.90;;;10.10;99.90;;;;;;5021109;28;20178;-81
2024/01/22 08:37:52;;;;;;;17.25;1.23;;;10.10;99.90;;;;;;5038614;28;20571;-82
2024/01/22 08:40:21;;;;;;;16.35;0.90;;;10.10;99.90;;;;;;5039548;28;20147;-82
2024/01/22 08:42:54;;;;;;;16.55;0.85;;;10.10;99.90;;;;;;5038889;28;20227;-81
2024/01/22 08:45:21;;;;;;;16.35;0.80;;;10.10;99.90;;;;;;5040838;28;20166;-82
2024/01/22 08:47:51;;;;;;;16.85;0.90;;;10.10;99.90;;;;;;5022851;28;20189;-81
2024/01/22 08:50:26;;;;;;;17.08;0.90;;;10.10;99.90;;;;;;5024369;28;20170;-82
2024/01/22 08:52:53;;;;;;;16.55;0.88;;;10.10;99.90;;;;;;5040319;28;20230;-82
2024/01/22 08:55:20;;;;;;;16.35;0.90;;;10.20;99.90;;;;;;5023796;28;20260;-81
2024/01/22 08:57:46;;;;;;;17.70;0.90;;;10.20;99.90;;;;;;5040533;28;20193;-82
2024/01/22 09:00:13;;;;;;;16.20;0.80;;;10.20;99.90;;;;;;5022801;28;20666;-81
2024/01/22 09:02:39;;;;;;;16.90;1.00;;;10.30;99.90;;;;;;5040629;28;20619;-81
2024/01/22 09:05:09;;;;;;;16.60;0.93;;;10.30;99.90;;;;;;5040952;28;20166;-82
2024/01/22 09:07:36;;;;;;;16.27;1.25;;;10.30;99.90;;;;;;5040111;28;20209;-81
2024/01/22 09:10:09;;;;;;;17.67;1.10;;;10.30;99.90;;;;;;5022902;28;20201;-81
2024/01/22 09:12:35;;;;;;;17.70;1.17;;;10.30;99.90;;;;;;5039423;28;20497;-82
2024/01/22 09:15:01;;;;;;;17.23;1.20;;;10.30;99.90;;;;;;5039454;28;20252;-81
2024/01/22 09:17:27;;;;;;;17.48;1.10;;;10.40;99.90;;;;;;5038674;28;20252;-81
2024/01/22 09:19:53;;;;;;;18.90;1.50;;;10.40;99.90;;;;;;5021928;28;20174;-81
2024/01/22 09:22:19;;;;;;;21.03;1.40;;;10.50;99.90;;;;;;5040720;28;20166;-81
2024/01/22 09:24:45;;;;;;;17.05;1.17;;;10.50;99.90;;;;;;5040050;28;20162;-82
2024/01/22 09:27:11;;;;;;;17.08;1.42;;;10.50;99.90;;;;;;5022187;28;20253;-80
2024/01/22 09:29:37;;;;;;;19.50;1.50;;;10.60;99.90;;;;;;5039284;28;20185;-82
2024/01/22 09:32:02;;;;;;;17.77;1.53;;;10.80;99.90;;;;;;5038311;28;20166;-82
2024/01/22 09:34:28;;;;;;;20.27;1.60;;;10.90;99.90;;;;;;5020665;28;20401;-81
2024/01/22 09:36:54;;;;;;;21.60;1.80;;;11.00;99.90;;;;;;5039138;28;20782;-81
2024/01/22 09:39:20;;;;;;;16.50;1.17;;;11.10;99.90;;;;;;5038615;28;20161;-81
2024/01/22 09:41:46;;;;;;;21.17;1.33;;;11.20;99.90;;;;;;5038305;28;20169;-81
2024/01/22 09:44:12;;;;;;;17.23;1.60;;;11.30;99.90;;;;;;5037352;28;20623;-81
2024/01/22 09:46:39;;;;;;;22.17;2.08;;;11.40;99.90;;;;;;5037732;28;20647;-81
2024/01/22 09:49:05;;;;;;;17.55;1.40;;;11.50;99.90;;;;;;5037675;28;20187;-82
2024/01/22 09:51:34;;;;;;;17.00;1.53;;;11.60;99.90;;;;;;5037384;28;20198;-80
2024/01/22 09:54:06;;;;;;;18.17;1.63;;;11.70;99.90;;;;;;5037471;28;20219;-81
2024/01/22 09:56:36;;;;;;;18.17;1.25;;;11.70;99.90;;;;;;5038668;28;20216;-82
2024/01/22 09:59:09;;;;;;;17.73;1.25;;;11.70;99.90;;;;;;5038122;28;20184;-81
2024/01/22 10:01:35;;;;;;;17.85;1.30;;;11.70;99.90;;;;;;5038395;28;20154;-81
2024/01/22 10:04:02;;;;;;;17.38;1.00;;;11.60;99.90;;;;;;5037886;28;20169;-81
2024/01/22 10:06:30;;;;;;;16.05;1.10;;;11.60;99.90;;;;;;5037769;28;20272;-81
2024/01/22 10:08:57;;;;;;;17.52;1.10;;;11.50;99.90;;;;;;5038383;28;20244;-81
2024/01/22 10:11:25;;;;;;;16.73;1.20;;;11.50;99.90;;;;;;5039601;28;20168;-82
2024/01/22 10:13:50;;;;;;;18.85;1.50;;;11.50;99.90;;;;;;5037908;28;20169;-82
2024/01/22 10:16:17;;;;;;;16.37;0.83;;;11.40;99.90;;;;;;5020117;28;20181;-81
2024/01/22 10:18:59;;;;;;;16.65;1.20;;;11.30;99.90;;;;;;5037429;28;20319;-82
2024/01/22 10:21:25;;;;;;;16.38;1.35;;;11.30;99.90;;;;;;5037946;28;20269;-81
2024/01/22 10:23:58;;;;;;;16.80;1.20;;;11.20;99.90;;;;;;5037614;28;20651;-82
2024/01/22 10:26:24;;;;;;;17.10;1.20;;;11.20;99.90;;;;;;5020636;28;20905;-82
2024/01/22 10:28:51;;;;;;;16.00;0.98;;;11.20;99.90;;;;;;5038783;28;20162;-81
2024/01/22 10:31:17;;;;;;;17.40;1.10;;;11.10;99.90;;;;;;5038687;28;20164;-82
2024/01/22 10:33:43;;;;;;;16.37;1.00;;;11.10;99.90;;;;;;5039592;28;20186;-82
2024/01/22 10:36:19;;;;;;;15.90;0.80;;;11.10;99.90;;;;;;5020822;28;20771;-81
2024/01/22 10:38:46;;;;;;;16.00;0.85;;;11.10;99.90;;;;;;5038382;28;20203;-81
2024/01/22 10:41:25;;;;;;;16.05;0.85;;;11.00;99.90;;;;;;5021753;28;20528;-82
2024/01/22 10:43:50;;;;;;;16.02;0.90;;;11.00;99.90;;;;;;5038338;28;20200;-82
2024/01/22 10:46:18;;;;;;;16.23;0.90;;;11.10;99.90;;;;;;5021242;28;20170;-81
2024/01/22 10:48:44;;;;;;;15.52;0.82;;;11.10;99.90;;;;;;5037880;28;20158;-81
2024/01/22 10:51:10;;;;;;;16.07;0.90;;;11.10;99.90;;;;;;5037055;28;20184;-81
2024/01/22 10:53:38;;;;;;;15.83;0.90;;;11.20;99.90;;;;;;5037794;28;20405;-81
2024/01/22 10:56:22;;;;;;;16.83;0.85;;;11.10;99.90;;;;;;5037863;28;20427;-81
2024/01/22 10:58:49;;;;;;;16.15;0.80;;;11.10;99.90;;;;;;5038331;28;20186;-81
2024/01/22 11:01:18;;;;;;;15.90;0.90;;;11.10;99.90;;;;;;5038638;28;20166;-82
2024/01/22 11:03:48;;;;;;;15.93;0.75;;;11.10;99.90;;;;;;5039142;28;20174;-82
2024/01/22 11:06:19;;;;;;;15.90;0.82;;;11.20;99.90;;;;;;5039709;28;20574;-81
2024/01/22 11:08:52;;;;;;;15.85;0.80;;;11.10;99.90;;;;;;5037607;28;20186;-81
2024/01/22 11:11:22;;;;;;;15.85;0.90;;;11.20;99.90;;;;;;5038974;28;20177;-81
2024/01/22 11:13:52;;;;;;;15.90;0.80;;;11.10;99.90;;;;;;5038210;28;20150;-83
2024/01/22 11:16:22;;;;;;;15.65;0.70;;;11.00;99.90;;;;;;5038269;28;20225;-82
2024/01/22 11:18:58;;;;;;;15.65;0.70;;;11.00;99.90;;;;;;5039568;28;20602;-82
2024/01/22 11:21:25;;;;;;;15.88;0.85;;;11.00;99.90;;;;;;5038109;28;20219;-82
2024/01/22 11:24:05;;;;;;;16.10;0.80;;;11.00;99.90;;;;;;5019973;28;20594;-82
2024/01/22 11:26:32;;;;;;;16.98;1.00;;;11.10;99.90;;;;;;5044540;28;20185;-83
2024/01/22 11:29:13;;;;;;;15.95;0.70;;;11.00;99.90;;;;;;5046616;28;20558;-83
2024/01/22 11:31:39;;;;;;;15.60;0.70;;;11.00;99.90;;;;;;5044554;28;20153;-81
2024/01/22 11:34:05;;;;;;;16.30;0.80;;;11.00;99.90;;;;;;5026529;28;20169;-83
2024/01/22 11:36:53;;;;;;;15.60;0.70;;;11.10;99.90;;;;;;5046262;28;20181;-83
2024/01/22 11:39:48;;;;;;;15.43;0.70;;;11.00;99.90;;;;;;5029093;28;20448;-82
2024/01/22 11:42:17;;;;;;;15.45;0.70;;;11.10;99.90;;;;;;5011018;28;20169;-82
2024/01/22 11:44:45;;;;;;;16.10;0.80;;;11.10;99.90;;;;;;5027339;28;20165;-81
2024/01/22 11:47:11;;;;;;;15.90;0.80;;;11.10;99.90;;;;;;5027236;28;20198;-81
2024/01/22 11:49:37;;;;;;;15.63;0.70;;;11.00;99.90;;;;;;5043453;28;20196;-81
2024/01/22 11:52:21;;;;;;;18.40;1.00;;;11.00;99.90;;;;;;5044930;28;20407;-81
2024/01/22 11:54:57;;;;;;;16.00;0.90;;;11.00;99.90;;;;;;5029575;28;20311;-84
2024/01/22 11:57:25;;;;;;;16.30;0.90;;;11.00;99.90;;;;;;5044074;28;20200;-81
2024/01/22 12:00:19;;;;;;;16.70;0.75;;;11.00;99.90;;;;;;5042990;28;20165;-81
2024/01/22 12:02:46;;;;;;;15.93;0.90;;;11.00;99.90;;;;;;5043328;28;20150;-82
2024/01/22 12:05:18;;;;;;;16.75;1.00;;;11.10;99.90;;;;;;5042363;28;20170;-81
2024/01/22 12:07:45;;;;;;;16.08;1.00;;;11.20;99.90;;;;;;5023082;28;20232;-82
2024/01/22 12:10:28;;;;;;;19.23;1.17;;;11.20;99.90;;;;;;5040369;28;20189;-81
2024/01/22 12:13:04;;;;;;;16.13;1.05;;;11.30;99.90;;;;;;5039774;28;20162;-80
2024/01/22 12:15:32;;;;;;;19.50;1.40;;;11.40;99.90;;;;;;5038583;28;20150;-81
2024/01/22 12:17:58;;;;;;;20.00;1.60;;;11.40;99.90;;;;;;5037801;28;20198;-82
2024/01/22 12:20:25;;;;;;;18.20;1.80;;;11.50;99.90;;;;;;5020859;28;20192;-82
2024/01/22 12:23:01;;;;;;;21.73;1.40;;;11.60;99.90;;;;;;5038019;28;20934;-80
2024/01/22 12:25:42;;;;;;;16.80;1.33;;;11.60;99.90;;;;;;5038901;28;20162;-82
2024/01/22 12:28:13;;;;;;;17.88;1.30;;;11.70;99.90;;;;;;5038331;28;20224;-81
2024/01/22 12:30:39;;;;;;;17.27;1.27;;;11.70;99.90;;;;;;5038709;28;20173;-81
2024/01/22 12:33:05;;;;;;;16.00;1.13;;;11.60;99.90;;;;;;5021867;28;20170;-82
2024/01/22 12:35:31;;;;;;;17.40;1.50;;;11.60;99.90;;;;;;5020264;28;20405;-82
2024/01/22 12:37:56;;;;;;;17.60;1.60;;;11.60;99.90;;;;;;5039371;28;20456;-82
2024/01/22 12:40:23;;;;;;;18.47;1.30;;;11.50;99.90;;;;;;5039332;28;20170;-80
2024/01/22 12:42:59;;;;;;;15.82;1.30;;;11.50;99.90;;;;;;5038746;28;20169;-81